createdAt,value
2023-07-19T00:01:41.640Z,2.60
2023-07-19T00:04:08.235Z,2.42
2023-07-19T00:06:36.055Z,2.33
2023-07-19T00:09:02.554Z,2.10
2023-07-19T00:11:29.211Z,2.05
2023-07-19T00:13:55.710Z,2.10
2023-07-19T00:16:22.152Z,2.28
2023-07-19T00:18:48.857Z,2.50
2023-07-19T00:21:15.311Z,2.22
2023-07-19T00:23:43.286Z,2.20
2023-07-19T00:26:09.748Z,2.10
2023-07-19T00:28:36.266Z,2.00
2023-07-19T00:31:03.185Z,1.80
2023-07-19T00:33:29.982Z,1.80
2023-07-19T00:35:56.455Z,2.13
2023-07-19T00:38:22.983Z,2.35
2023-07-19T00:40:51.261Z,2.33
2023-07-19T00:43:17.724Z,1.77
2023-07-19T00:45:47.111Z,2.30
2023-07-19T00:48:15.612Z,2.45
2023-07-19T00:50:42.755Z,2.83
2023-07-19T00:53:09.762Z,2.33
2023-07-19T00:55:36.586Z,2.38
2023-07-19T00:58:04.606Z,2.40
2023-07-19T01:00:31.090Z,2.65
2023-07-19T01:02:58.779Z,2.30
2023-07-19T01:05:25.606Z,2.30
2023-07-19T01:07:52.318Z,2.10
2023-07-19T01:10:18.815Z,1.80
2023-07-19T01:12:45.288Z,2.10
2023-07-19T01:15:13.366Z,2.70
2023-07-19T01:17:51.820Z,2.40
2023-07-19T01:20:18.293Z,2.20
2023-07-19T01:22:46.087Z,2.03
2023-07-19T01:25:12.929Z,2.20
2023-07-19T01:27:39.661Z,2.03
2023-07-19T01:30:07.471Z,2.40
2023-07-19T01:32:34.271Z,1.92
2023-07-19T01:35:00.777Z,2.25
2023-07-19T01:37:28.030Z,2.28
2023-07-19T01:39:56.133Z,2.53
2023-07-19T01:42:22.776Z,2.58
2023-07-19T01:44:49.205Z,2.75
2023-07-19T01:47:18.432Z,2.65
2023-07-19T01:49:44.903Z,2.83
2023-07-19T01:52:11.341Z,2.20
2023-07-19T01:54:37.844Z,2.17
2023-07-19T01:57:06.364Z,2.60
2023-07-19T01:59:32.938Z,2.22
2023-07-19T02:01:59.537Z,2.17
2023-07-19T02:04:26.203Z,2.30
2023-07-19T02:06:53.315Z,2.50
2023-07-19T02:09:19.837Z,2.10
2023-07-19T02:11:46.381Z,2.63
2023-07-19T02:14:14.326Z,2.55
2023-07-19T02:16:40.807Z,2.60
2023-07-19T02:19:08.035Z,2.30
2023-07-19T02:21:35.101Z,2.50
2023-07-19T02:24:02.410Z,2.72
2023-07-19T02:26:28.897Z,2.55
2023-07-19T02:28:55.349Z,2.65
2023-07-19T02:31:23.644Z,2.58
2023-07-19T02:33:50.466Z,2.05
2023-07-19T02:36:18.053Z,2.35
2023-07-19T02:38:44.518Z,2.40
2023-07-19T02:41:10.985Z,2.85
2023-07-19T02:43:39.333Z,2.95
2023-07-19T02:46:05.873Z,2.50
2023-07-19T02:48:33.865Z,2.17
2023-07-19T02:51:00.339Z,2.42
2023-07-19T02:53:26.978Z,2.17
2023-07-19T02:55:53.550Z,2.22
2023-07-19T02:58:19.993Z,2.20
2023-07-19T03:00:46.555Z,2.60
2023-07-19T03:03:13.824Z,2.40
2023-07-19T03:05:44.707Z,2.97
2023-07-19T03:08:11.487Z,3.13
2023-07-19T03:10:38.065Z,2.67
2023-07-19T03:13:05.081Z,2.63
2023-07-19T03:15:33.485Z,2.83
2023-07-19T03:18:00.090Z,2.15
2023-07-19T03:20:26.726Z,2.55
2023-07-19T03:22:54.645Z,2.83
2023-07-19T03:25:21.163Z,2.70
2023-07-19T03:27:47.620Z,2.92
2023-07-19T03:30:15.358Z,2.38
2023-07-19T03:32:41.802Z,2.75
2023-07-19T03:35:08.597Z,2.67
2023-07-19T03:37:35.460Z,3.17
2023-07-19T03:40:03.994Z,2.90
2023-07-19T03:42:30.604Z,3.60
2023-07-19T03:44:57.097Z,3.28
2023-07-19T03:47:23.684Z,3.63
2023-07-19T03:49:50.483Z,3.50
2023-07-19T03:52:16.984Z,2.97
2023-07-19T03:54:44.496Z,4.63
2023-07-19T03:57:12.305Z,3.63
2023-07-19T03:59:38.845Z,3.45
2023-07-19T04:02:06.170Z,3.95
2023-07-19T04:04:32.817Z,4.03
2023-07-19T04:06:59.446Z,3.65
2023-07-19T04:09:26.090Z,3.15
2023-07-19T04:11:52.606Z,2.70
2023-07-19T04:14:20.516Z,3.05
2023-07-19T04:16:47.011Z,3.47
2023-07-19T04:19:13.587Z,3.20
2023-07-19T04:21:40.087Z,3.22
2023-07-19T04:24:06.907Z,3.03
2023-07-19T04:26:33.464Z,3.47
2023-07-19T04:29:01.128Z,2.83
2023-07-19T04:31:29.067Z,3.38
2023-07-19T04:33:55.618Z,3.22
2023-07-19T04:36:22.418Z,3.67
2023-07-19T04:38:48.951Z,3.28
2023-07-19T04:41:15.498Z,3.13
2023-07-19T04:43:42.141Z,3.28
2023-07-19T04:46:08.661Z,3.40
2023-07-19T04:48:36.548Z,3.40
2023-07-19T04:51:03.279Z,3.65
2023-07-19T04:53:29.873Z,3.30
2023-07-19T04:55:56.412Z,3.35
2023-07-19T04:58:22.939Z,3.00
2023-07-19T05:00:49.585Z,3.50
2023-07-19T05:03:16.118Z,3.08
2023-07-19T05:05:43.992Z,3.53
2023-07-19T05:08:10.598Z,3.03
2023-07-19T05:10:37.751Z,3.33
2023-07-19T05:13:04.460Z,3.05
2023-07-19T05:15:31.311Z,3.30
2023-07-19T05:17:57.917Z,3.17
2023-07-19T05:20:24.631Z,3.53
2023-07-19T05:22:52.754Z,3.63
2023-07-19T05:25:19.636Z,2.90
2023-07-19T05:27:46.375Z,3.28
2023-07-19T05:30:13.595Z,3.60
2023-07-19T05:32:40.164Z,2.83
2023-07-19T05:35:07.513Z,2.92
2023-07-19T05:37:34.011Z,2.50
2023-07-19T05:40:01.929Z,3.30
2023-07-19T05:42:28.486Z,3.10
2023-07-19T05:44:54.983Z,3.03
2023-07-19T05:47:21.505Z,2.97
2023-07-19T05:49:48.221Z,2.85
2023-07-19T05:52:14.694Z,2.92
2023-07-19T05:54:41.123Z,3.10
2023-07-19T05:57:08.983Z,2.70
2023-07-19T05:59:35.455Z,2.70
2023-07-19T06:02:01.988Z,2.72
2023-07-19T06:04:28.761Z,3.15
2023-07-19T06:06:55.311Z,2.80
2023-07-19T06:09:21.993Z,3.38
2023-07-19T06:11:48.559Z,3.03
2023-07-19T06:14:16.342Z,2.85
2023-07-19T06:16:42.795Z,2.75
2023-07-19T06:19:12.701Z,2.55
2023-07-19T06:21:39.268Z,2.97
2023-07-19T06:24:06.599Z,3.15
2023-07-19T06:26:33.195Z,3.47
2023-07-19T06:28:59.661Z,3.30
2023-07-19T06:31:27.707Z,3.30
2023-07-19T06:33:54.697Z,2.70
2023-07-19T06:36:21.138Z,3.03
2023-07-19T06:38:47.860Z,3.00
2023-07-19T06:41:14.359Z,3.25
2023-07-19T06:43:40.822Z,3.15
2023-07-19T06:46:09.549Z,2.80
2023-07-19T06:48:38.992Z,2.67
2023-07-19T06:51:05.722Z,2.95
2023-07-19T06:53:32.235Z,3.35
2023-07-19T06:55:59.619Z,3.10
2023-07-19T06:58:26.438Z,3.33
2023-07-19T07:03:21.582Z,3.45
2023-07-19T07:05:49.928Z,2.80
2023-07-19T07:08:16.529Z,2.47
2023-07-19T07:10:43.275Z,2.65
2023-07-19T07:13:09.902Z,3.42
2023-07-19T07:15:36.492Z,2.72
2023-07-19T07:18:03.318Z,2.25
2023-07-19T07:20:29.910Z,2.53
2023-07-19T07:22:57.750Z,2.47
2023-07-19T07:25:24.365Z,2.95
2023-07-19T07:27:50.824Z,2.47
2023-07-19T07:30:17.573Z,2.88
2023-07-19T07:32:49.905Z,2.77
2023-07-19T07:35:16.583Z,2.38
2023-07-19T07:37:43.070Z,2.42
2023-07-19T07:40:11.604Z,2.40
2023-07-19T07:42:38.162Z,2.47
2023-07-19T07:45:06.131Z,2.83
2023-07-19T07:47:32.953Z,2.47
2023-07-19T07:49:59.485Z,2.45
2023-07-19T07:52:26.030Z,2.38
2023-07-19T07:54:52.687Z,2.17
2023-07-19T07:57:20.716Z,2.35
2023-07-19T07:59:47.240Z,2.10
2023-07-19T08:02:13.952Z,2.30
2023-07-19T08:04:40.477Z,2.30
2023-07-19T08:07:06.970Z,2.67
2023-07-19T08:09:33.795Z,2.63
2023-07-19T08:12:00.319Z,2.25
2023-07-19T08:14:28.108Z,2.22
2023-07-19T08:16:54.702Z,2.63
2023-07-19T08:19:21.237Z,2.40
2023-07-19T08:21:47.740Z,2.58
2023-07-19T08:24:14.300Z,2.70
2023-07-19T08:26:40.764Z,2.72
2023-07-19T08:29:07.202Z,3.13
2023-07-19T08:31:35.083Z,2.58
2023-07-19T08:34:01.631Z,2.67
2023-07-19T08:36:28.293Z,2.50
2023-07-19T08:38:55.052Z,2.63
2023-07-19T08:41:22.605Z,2.83
2023-07-19T08:43:49.302Z,3.13
2023-07-19T08:46:16.511Z,2.78
2023-07-19T08:48:46.768Z,2.42
2023-07-19T08:51:13.940Z,2.50
2023-07-19T08:53:40.435Z,2.75
2023-07-19T08:56:07.196Z,3.13
2023-07-19T08:58:37.122Z,3.47
2023-07-19T09:01:03.587Z,3.30
2023-07-19T09:03:30.120Z,2.55
2023-07-19T09:05:58.017Z,2.45
2023-07-19T09:08:35.290Z,2.65
2023-07-19T09:11:01.795Z,2.35
2023-07-19T09:13:31.179Z,3.08
2023-07-19T09:15:57.643Z,2.80
2023-07-19T09:18:27.774Z,3.17
2023-07-19T09:20:59.216Z,3.72
2023-07-19T09:23:26.013Z,2.83
2023-07-19T09:25:53.050Z,2.80
2023-07-19T09:28:21.053Z,2.85
2023-07-19T09:30:54.491Z,2.55
2023-07-19T09:33:21.466Z,2.72
2023-07-19T09:35:53.593Z,2.90
2023-07-19T09:38:21.873Z,2.55
2023-07-19T09:40:48.996Z,2.78
2023-07-19T09:43:17.284Z,2.95
2023-07-19T09:45:44.085Z,2.10
2023-07-19T09:48:11.539Z,2.92
2023-07-19T09:50:39.645Z,3.92
2023-07-19T09:53:08.754Z,2.15
2023-07-19T09:55:37.158Z,2.67
2023-07-19T09:58:06.093Z,1.98
2023-07-19T10:00:32.667Z,2.33
2023-07-19T10:02:59.713Z,2.30
2023-07-19T10:05:30.256Z,2.78
2023-07-19T10:08:02.345Z,2.70
2023-07-19T10:10:37.337Z,2.10
2023-07-19T10:13:03.968Z,2.50
2023-07-19T10:15:30.548Z,1.90
2023-07-19T10:17:58.396Z,2.05
2023-07-19T10:20:28.178Z,2.00
2023-07-19T10:22:56.353Z,2.53
2023-07-19T10:25:25.239Z,2.60
2023-07-19T10:28:02.463Z,1.70
2023-07-19T10:30:54.303Z,2.20
2023-07-19T10:33:22.729Z,2.20
2023-07-19T10:35:50.547Z,2.60
2023-07-19T10:38:18.558Z,2.30
2023-07-19T10:40:47.428Z,2.00
2023-07-19T10:43:17.268Z,1.77
2023-07-19T10:45:48.974Z,2.63
2023-07-19T10:48:15.496Z,2.25
2023-07-19T10:50:43.741Z,2.67
2023-07-19T10:53:10.651Z,2.05
2023-07-19T10:58:06.834Z,1.90
2023-07-19T11:00:37.289Z,2.58
2023-07-19T11:03:03.900Z,2.35
2023-07-19T11:05:30.460Z,1.80
2023-07-19T11:07:56.928Z,1.90
2023-07-19T11:10:23.603Z,1.83
2023-07-19T11:12:50.102Z,2.00
2023-07-19T11:15:18.015Z,2.03
2023-07-19T11:17:45.785Z,2.65
2023-07-19T11:20:12.365Z,2.17
2023-07-19T11:22:38.910Z,2.50
2023-07-19T11:25:11.419Z,2.50
2023-07-19T11:27:38.269Z,2.88
2023-07-19T11:30:05.897Z,2.45
2023-07-19T11:32:32.427Z,2.58
2023-07-19T11:35:01.973Z,2.70
2023-07-19T11:37:31.854Z,2.58
2023-07-19T11:39:59.809Z,2.00
2023-07-19T11:42:43.628Z,2.45
2023-07-19T11:45:12.172Z,1.73
2023-07-19T11:47:39.632Z,1.80
2023-07-19T11:50:08.772Z,3.70
2023-07-19T11:52:46.410Z,2.10
2023-07-19T11:55:13.240Z,2.17
2023-07-19T11:57:39.750Z,3.00
2023-07-19T12:00:08.001Z,1.98
2023-07-19T12:02:34.883Z,1.67
2023-07-19T12:05:01.359Z,1.63
2023-07-19T12:07:29.117Z,1.83
2023-07-19T12:09:55.609Z,2.00
2023-07-19T12:12:22.202Z,2.10
2023-07-19T12:14:48.731Z,3.15
2023-07-19T12:17:15.437Z,2.03
2023-07-19T12:19:41.925Z,1.60
2023-07-19T12:24:39.124Z,2.10
2023-07-19T12:27:05.805Z,1.70
2023-07-19T12:29:38.411Z,1.77
2023-07-19T12:32:11.147Z,2.08
2023-07-19T12:34:37.629Z,1.95
2023-07-19T12:37:04.728Z,1.88
2023-07-19T12:39:31.212Z,1.55
2023-07-19T12:41:59.005Z,1.42
2023-07-19T12:44:25.697Z,1.90
2023-07-19T12:46:52.364Z,1.70
2023-07-19T12:49:19.338Z,1.67
2023-07-19T12:51:45.883Z,1.90
2023-07-19T12:54:12.411Z,1.67
2023-07-19T12:56:39.045Z,2.13
2023-07-19T12:59:08.202Z,1.40
2023-07-19T13:01:35.260Z,2.33
2023-07-19T13:04:02.054Z,1.80
2023-07-19T13:06:28.579Z,1.70
2023-07-19T13:08:55.212Z,1.85
2023-07-19T13:11:21.688Z,2.00
2023-07-19T13:13:48.134Z,1.80
2023-07-19T13:16:16.046Z,1.80
2023-07-19T13:18:42.530Z,1.73
2023-07-19T13:21:08.965Z,1.90
2023-07-19T13:23:35.662Z,1.77
2023-07-19T13:26:02.185Z,1.70
2023-07-19T13:28:28.632Z,1.95
2023-07-19T13:30:59.177Z,1.77
2023-07-19T13:33:27.782Z,1.67
2023-07-19T13:35:55.018Z,1.50
2023-07-19T13:38:24.429Z,1.52
2023-07-19T13:40:51.553Z,1.88
2023-07-19T13:43:18.116Z,2.03
2023-07-19T13:45:44.576Z,1.55
2023-07-19T13:48:11.117Z,2.00
2023-07-19T13:50:39.436Z,1.98
2023-07-19T13:53:06.425Z,1.52
2023-07-19T13:55:33.578Z,2.00
2023-07-19T13:58:00.054Z,1.83
2023-07-19T14:00:27.232Z,1.75
2023-07-19T14:02:53.763Z,2.42
2023-07-19T14:05:20.582Z,1.98
2023-07-19T14:07:48.422Z,1.48
2023-07-19T14:10:14.895Z,2.13
2023-07-19T14:12:41.552Z,2.05
2023-07-19T14:15:09.165Z,1.65
2023-07-19T14:17:36.109Z,2.00
2023-07-19T14:20:02.952Z,1.73
2023-07-19T14:22:29.432Z,2.05
2023-07-19T14:24:57.309Z,1.65
2023-07-19T14:27:23.944Z,1.92
2023-07-19T14:29:50.425Z,2.00
2023-07-19T14:32:16.923Z,2.33
2023-07-19T14:34:47.093Z,2.20
2023-07-19T14:37:14.334Z,1.63
2023-07-19T14:39:43.913Z,1.90
2023-07-19T14:42:12.669Z,1.80
2023-07-19T14:44:39.158Z,2.20
2023-07-19T14:47:06.500Z,2.25
2023-07-19T14:49:33.014Z,2.30
2023-07-19T14:51:59.628Z,2.33
2023-07-19T14:54:26.692Z,2.50
2023-07-19T14:56:53.168Z,2.15
2023-07-19T14:59:21.064Z,2.08
2023-07-19T15:01:48.364Z,1.85
2023-07-19T15:04:14.952Z,1.80
2023-07-19T15:06:41.482Z,1.95
2023-07-19T15:09:08.437Z,2.70
2023-07-19T15:11:35.043Z,1.95
2023-07-19T15:14:01.517Z,1.65
2023-07-19T15:16:29.446Z,1.77
2023-07-19T15:23:51.031Z,1.92
2023-07-19T15:26:32.146Z,2.15
2023-07-19T15:29:00.991Z,1.98
2023-07-19T15:31:29.030Z,2.20
2023-07-19T15:33:55.575Z,1.70
2023-07-19T15:36:22.266Z,2.40
2023-07-19T15:38:49.139Z,2.25
2023-07-19T15:41:15.606Z,2.03
2023-07-19T15:43:45.021Z,2.17
2023-07-19T15:46:11.672Z,1.55
2023-07-19T15:48:39.517Z,1.50
2023-07-19T15:51:06.761Z,1.52
2023-07-19T15:53:34.916Z,1.50
2023-07-19T15:56:01.360Z,1.90
2023-07-19T15:58:27.969Z,2.00
2023-07-19T16:00:55.027Z,1.75
2023-07-19T16:03:21.584Z,1.65
2023-07-19T16:05:49.543Z,1.40
2023-07-19T16:08:15.971Z,1.75
2023-07-19T16:10:42.459Z,1.95
2023-07-19T16:13:08.963Z,1.70
2023-07-19T16:15:35.422Z,1.60
2023-07-19T16:18:01.983Z,1.65
2023-07-19T16:20:28.669Z,1.50
2023-07-19T16:22:56.572Z,1.90
2023-07-19T16:25:23.129Z,2.00
2023-07-19T16:27:49.621Z,2.33
2023-07-19T16:30:16.239Z,1.95
2023-07-19T16:32:42.770Z,1.63
2023-07-19T16:35:09.758Z,1.80
2023-07-19T16:37:36.279Z,1.75
2023-07-19T16:40:04.630Z,1.88
2023-07-19T16:42:31.084Z,1.33
2023-07-19T16:44:57.512Z,1.67
2023-07-19T16:47:24.086Z,1.40
2023-07-19T16:49:50.606Z,1.58
2023-07-19T16:52:17.124Z,1.65
2023-07-19T16:54:43.627Z,1.50
2023-07-19T16:57:11.456Z,1.85
2023-07-19T16:59:37.976Z,2.30
2023-07-19T17:02:04.647Z,1.75
2023-07-19T17:04:31.384Z,1.80
2023-07-19T17:06:57.877Z,1.60
2023-07-19T17:09:24.316Z,2.10
2023-07-19T17:11:51.219Z,1.80
2023-07-19T17:14:19.064Z,1.95
2023-07-19T17:16:54.630Z,1.83
2023-07-19T17:19:28.633Z,2.00
2023-07-19T17:21:55.122Z,1.73
2023-07-19T17:24:21.567Z,1.48
2023-07-19T17:26:48.255Z,1.80
2023-07-19T17:29:14.781Z,2.13
2023-07-19T17:31:42.574Z,2.10
2023-07-19T17:34:09.067Z,1.92
2023-07-19T17:36:35.522Z,1.98
2023-07-19T17:39:01.988Z,1.90
2023-07-19T17:41:29.154Z,2.50
2023-07-19T17:43:55.610Z,1.65
2023-07-19T17:46:22.074Z,1.48
2023-07-19T17:48:49.840Z,1.38
2023-07-19T17:51:16.336Z,1.95
2023-07-19T17:53:42.892Z,2.10
2023-07-19T17:56:09.471Z,1.95
2023-07-19T17:58:35.954Z,1.83
2023-07-19T18:01:04.595Z,1.73
2023-07-19T18:03:31.205Z,1.20
2023-07-19T18:05:59.144Z,1.48
2023-07-19T18:08:28.892Z,1.70
2023-07-19T18:10:56.165Z,1.80
2023-07-19T18:13:22.638Z,1.70
2023-07-19T18:15:49.112Z,1.60
2023-07-19T18:18:15.710Z,1.33
2023-07-19T18:20:42.289Z,1.92
2023-07-19T18:23:10.370Z,1.63
2023-07-19T18:25:36.893Z,1.40
2023-07-19T18:28:03.383Z,1.30
2023-07-19T18:30:29.978Z,1.75
2023-07-19T18:32:56.815Z,1.65
2023-07-19T18:35:23.344Z,2.10
2023-07-19T18:37:49.787Z,1.70
2023-07-19T18:40:17.664Z,1.30
2023-07-19T18:42:44.125Z,1.88
2023-07-19T18:45:11.208Z,1.77
2023-07-19T18:47:37.984Z,1.80
2023-07-19T18:50:05.304Z,1.58
2023-07-19T18:52:32.059Z,1.40
2023-07-19T18:54:58.553Z,1.42
2023-07-19T18:57:26.327Z,1.52
2023-07-19T18:59:52.828Z,1.08
2023-07-19T19:02:19.290Z,1.17
2023-07-19T19:04:45.723Z,1.20
2023-07-19T19:07:12.172Z,1.50
2023-07-19T19:09:38.732Z,1.42
2023-07-19T19:12:06.021Z,1.80
2023-07-19T19:14:33.909Z,1.35
2023-07-19T19:17:00.692Z,1.67
2023-07-19T19:19:27.173Z,1.48
2023-07-19T19:21:53.726Z,1.58
2023-07-19T19:24:20.185Z,1.67
2023-07-19T19:26:46.626Z,1.20
2023-07-19T19:29:13.081Z,0.90
2023-07-19T19:31:40.887Z,1.35
2023-07-19T19:34:07.394Z,1.23
2023-07-19T19:36:34.011Z,1.40
2023-07-19T19:39:01.554Z,1.60
2023-07-19T19:41:29.332Z,1.65
2023-07-19T19:43:55.790Z,1.27
2023-07-19T19:46:22.360Z,1.17
2023-07-19T19:48:50.255Z,1.50
2023-07-19T19:51:16.713Z,1.23
2023-07-19T19:53:43.322Z,1.27
2023-07-19T19:58:39.106Z,1.63
2023-07-19T20:01:08.536Z,1.60
2023-07-19T20:03:36.617Z,1.73
2023-07-19T20:06:04.802Z,1.73
2023-07-19T20:08:31.308Z,2.17
2023-07-19T20:10:59.945Z,1.30
2023-07-19T20:13:27.000Z,1.33
2023-07-19T20:15:53.833Z,1.50
2023-07-19T20:18:20.512Z,1.40
2023-07-19T20:20:50.685Z,1.40
2023-07-19T20:23:21.334Z,1.70
2023-07-19T20:26:11.251Z,1.50
2023-07-19T20:28:34.720Z,1.30
2023-07-19T20:31:05.790Z,1.20
2023-07-19T20:33:34.438Z,1.00
2023-07-19T20:36:07.445Z,1.10
2023-07-19T20:43:34.836Z,1.13
2023-07-19T20:48:39.184Z,1.55
2023-07-19T20:51:09.392Z,1.38
2023-07-19T20:53:37.285Z,1.20
2023-07-19T20:56:05.496Z,1.67
2023-07-19T20:58:32.140Z,1.35
2023-07-19T21:01:01.224Z,1.30
2023-07-19T21:03:28.056Z,1.33
2023-07-19T21:05:54.599Z,1.17
2023-07-19T21:08:21.182Z,1.20
2023-07-19T21:10:49.495Z,1.38
2023-07-19T21:13:16.026Z,1.20
2023-07-19T21:15:42.567Z,1.30
2023-07-19T21:18:09.072Z,1.40
2023-07-19T21:20:35.842Z,1.20
2023-07-19T21:23:03.218Z,1.23
2023-07-19T21:25:31.859Z,2.22
2023-07-19T21:27:59.665Z,1.50
2023-07-19T21:30:29.127Z,1.70
2023-07-19T21:32:57.753Z,2.00
2023-07-19T21:35:24.222Z,1.63
2023-07-19T21:37:50.798Z,1.27
2023-07-19T21:40:18.478Z,1.27
2023-07-19T21:42:45.049Z,1.40
2023-07-19T21:45:13.499Z,1.08
2023-07-19T21:47:40.544Z,0.90
2023-07-19T21:50:07.808Z,1.30
2023-07-19T21:52:34.269Z,1.20
2023-07-19T21:55:00.751Z,1.15
2023-07-19T21:57:27.206Z,1.00
2023-07-19T21:59:53.677Z,0.95
2023-07-19T22:02:21.651Z,1.20
2023-07-19T22:04:48.116Z,1.50
2023-07-19T22:07:14.596Z,1.45
2023-07-19T22:09:41.084Z,1.20
2023-07-19T22:12:08.975Z,1.30
2023-07-19T22:14:35.577Z,1.10
2023-07-19T22:17:02.173Z,1.48
2023-07-19T22:19:30.099Z,1.38
2023-07-19T22:21:56.677Z,1.20
2023-07-19T22:24:23.290Z,1.70
2023-07-19T22:26:49.849Z,1.35
2023-07-19T22:29:16.331Z,1.30
2023-07-19T22:31:43.036Z,1.45
2023-07-19T22:34:09.549Z,1.25
2023-07-19T22:36:37.330Z,1.30
2023-07-19T22:39:04.032Z,1.10
2023-07-19T22:41:30.533Z,1.48
2023-07-19T22:43:57.042Z,0.85
2023-07-19T22:46:25.826Z,1.20
2023-07-19T22:48:52.552Z,0.90
2023-07-19T22:51:18.989Z,1.10
2023-07-19T22:53:46.801Z,0.90
2023-07-19T22:56:13.571Z,1.42
2023-07-19T22:58:40.035Z,1.25
2023-07-19T23:01:06.679Z,1.13
2023-07-19T23:03:33.222Z,1.10
2023-07-19T23:05:59.961Z,0.90
2023-07-19T23:08:26.707Z,1.17
2023-07-19T23:10:54.508Z,0.85
2023-07-19T23:13:21.038Z,1.00
2023-07-19T23:15:47.509Z,1.10
2023-07-19T23:18:13.997Z,0.80
2023-07-19T23:20:40.475Z,1.00
2023-07-19T23:23:07.033Z,0.82
2023-07-19T23:25:33.577Z,0.80
2023-07-19T23:28:01.404Z,0.85
2023-07-19T23:30:28.160Z,0.90
2023-07-19T23:32:54.873Z,0.80
2023-07-19T23:35:21.473Z,1.13
2023-07-19T23:37:48.003Z,0.98
2023-07-19T23:40:14.549Z,0.60
2023-07-19T23:42:41.050Z,0.80
2023-07-19T23:45:10.052Z,0.80
2023-07-19T23:47:36.907Z,0.60
2023-07-19T23:50:03.956Z,1.00
2023-07-19T23:52:30.602Z,0.80
2023-07-19T23:54:57.099Z,0.57
2023-07-19T23:57:23.681Z,0.75
2023-07-19T23:59:50.193Z,0.93
